Observation data for Plainview on 08/14/2020      Previous  Date  Next       Current Mesonet Observations  Soil Data  Daily Summary Page  Observations in Plain Language
KPVS 140500Z 06005KT 29/14 A2999 RMK A01 T02920139  RH  041%=      5-min Rain = 0
KPVS 140505Z 06005KT 29/14 A2999 RMK A01 T02920139  RH  041%=      5-min Rain = 0
KPVS 140510Z 04004KT 30/14 A2999 RMK A01 T02960138  RH  040%=      5-min Rain = 0
KPVS 140515Z 03005KT 29/14 A2999 RMK A01 T02930140  RH  041%=      5-min Rain = 0
KPVS 140520Z 06008KT 29/14 A2999 RMK A01 T02940137  RH  040%=      5-min Rain = 0
KPVS 140525Z 06007KT 30/14 A2999 RMK A01 T03010137  RH  038%=      5-min Rain = 0
KPVS 140530Z 05007KT 30/14 A2999 RMK A01 T03000140  RH  039%=      5-min Rain = 0
KPVS 140535Z 05006KT 30/14 A2999 RMK A01 T02970141  RH  040%=      5-min Rain = 0
KPVS 140540Z 06004KT 29/14 A2999 RMK A01 T02940143  RH  041%=      5-min Rain = 0
KPVS 140545Z 05005KT 29/14 A2999 RMK A01 T02910143  RH  042%=      5-min Rain = 0
KPVS 140550Z 06007KT 29/14 A2999 RMK A01 T02900144  RH  043%=      5-min Rain = 0
KPVS 140555Z 07005KT 29/15 A2999 RMK A01 T02860145  RH  044%=      5-min Rain = 0
KPVS 140600Z 08006KT 28/15 A2999 RMK A01 T02810147  RH  046%=      5-min Rain = 0
KPVS 140605Z 08006KT 28/15 A2999 RMK A01 T02760148  RH  047%=      5-min Rain = 0
KPVS 140610Z 09004KT 28/15 A2999 RMK A01 T02750148  RH  048%=      5-min Rain = 0
KPVS 140615Z 09004KT 27/15 A2999 RMK A01 T02730148  RH  049%=      5-min Rain = 0
KPVS 140620Z 09004KT 27/15 A2999 RMK A01 T02690149  RH  050%=      5-min Rain = 0
KPVS 140625Z 10004KT 27/15 A2999 RMK A01 T02650149  RH  051%=      5-min Rain = 0
KPVS 140630Z 10004KT 26/15 A2999 RMK A01 T02630148  RH  051%=      5-min Rain = 0
KPVS 140635Z 10004KT 26/15 A2999 RMK A01 T02600147  RH  052%=      5-min Rain = 0
KPVS 140640Z 09004KT 26/15 A2999 RMK A01 T02570147  RH  053%=      5-min Rain = 0
KPVS 140645Z 10003KT 25/15 A2999 RMK A01 T02540145  RH  053%=      5-min Rain = 0
KPVS 140650Z 12004KT 25/15 A2999 RMK A01 T02530147  RH  054%=      5-min Rain = 0
KPVS 140655Z 10004KT 25/14 A2999 RMK A01 T02520143  RH  053%=      5-min Rain = 0
KPVS 140700Z 09003KT 25/15 A2999 RMK A01 T02490145  RH  055%=      5-min Rain = 0
KPVS 140705Z 11001KT 25/14 A2999 RMK A01 T02450144  RH  056%=      5-min Rain = 0
KPVS 140710Z 10002KT 24/14 A2999 RMK A01 T02440143  RH  056%=      5-min Rain = 0
KPVS 140715Z 14002KT 24/14 A2999 RMK A01 T02440141  RH  055%=      5-min Rain = 0
KPVS 140720Z 16001KT 24/14 A2999 RMK A01 T02440140  RH  055%=      5-min Rain = 0
KPVS 140725Z 19003KT 24/14 A2999 RMK A01 T02440138  RH  054%=      5-min Rain = 0
KPVS 140730Z 18004KT 25/13 A2999 RMK A01 T02460132  RH  051%=      5-min Rain = 0
KPVS 140735Z 18004KT 25/13 A2999 RMK A01 T02490130  RH  050%=      5-min Rain = 0
KPVS 140740Z 18004KT 25/13 A2999 RMK A01 T02500128  RH  048%=      5-min Rain = 0
KPVS 140745Z 19003KT 25/13 A2999 RMK A01 T02500131  RH  049%=      5-min Rain = 0
KPVS 140750Z 18002KT 25/13 A2999 RMK A01 T02460131  RH  051%=      5-min Rain = 0
KPVS 140755Z 15001KT 24/13 A2999 RMK A01 T02430129  RH  051%=      5-min Rain = 0
KPVS 140800Z 09001KT 25/12 A2999 RMK A01 T02460124  RH  049%=      5-min Rain = 0
KPVS 140805Z 11002KT 25/12 A2999 RMK A01 T02500121  RH  046%=      5-min Rain = 0
KPVS 140810Z 08002KT 25/13 A2999 RMK A01 T02480129  RH  049%=      5-min Rain = 0
KPVS 140815Z 10001KT 25/13 A2999 RMK A01 T02450129  RH  051%=      5-min Rain = 0
KPVS 140820Z 09000KT 24/13 A2999 RMK A01 T02390131  RH  053%=      5-min Rain = 0
KPVS 140825Z 09000KT 24/13 A30 RMK A01 T02370130  RH  053%=      5-min Rain = 0
KPVS 140830Z 18002KT 24/13 A30 RMK A01 T02350132  RH  054%=      5-min Rain = 0
KPVS 140835Z 21003KT 24/13 A2999 RMK A01 T02360131  RH  054%=      5-min Rain = 0
KPVS 140840Z 20003KT 24/13 A2999 RMK A01 T02400130  RH  052%=      5-min Rain = 0
KPVS 140845Z 21003KT 24/13 A2999 RMK A01 T02410130  RH  052%=      5-min Rain = 0
KPVS 140850Z 20002KT 24/13 A2999 RMK A01 T02400128  RH  052%=      5-min Rain = 0
KPVS 140855Z 20004KT 24/13 A2999 RMK A01 T02390128  RH  052%=      5-min Rain = 0
KPVS 140900Z 20004KT 24/13 A2999 RMK A01 T02410127  RH  051%=      5-min Rain = 0
KPVS 140905Z 20003KT 24/13 A2999 RMK A01 T02410129  RH  051%=      5-min Rain = 0
KPVS 140910Z 21003KT 24/13 A2999 RMK A01 T02390130  RH  052%=      5-min Rain = 0
KPVS 140915Z 21005KT 24/13 A2999 RMK A01 T02400125  RH  050%=      5-min Rain = 0
KPVS 140920Z 21006KT 24/12 A2999 RMK A01 T02430122  RH  048%=      5-min Rain = 0
KPVS 140925Z 21007KT 24/12 A2999 RMK A01 T02440119  RH  047%=      5-min Rain = 0
KPVS 140930Z 20007KT 25/12 A2999 RMK A01 T02460117  RH  046%=      5-min Rain = 0
KPVS 140935Z 20008KT 25/12 A2998 RMK A01 T02480116  RH  045%=      5-min Rain = 0
KPVS 140940Z 20009KT 25/11 A2998 RMK A01 T02500113  RH  044%=      5-min Rain = 0
KPVS 140945Z 21009KT 25/11 A2999 RMK A01 T02510113  RH  044%=      5-min Rain = 0
KPVS 140950Z 21009KT 25/11 A2999 RMK A01 T02520114  RH  044%=      5-min Rain = 0
KPVS 140955Z 21012KT 25/11 A2999 RMK A01 T02540112  RH  042%=      5-min Rain = 0
KPVS 141000Z 21011KT 25/11 A2999 RMK A01 T02540113  RH  043%=      5-min Rain = 0
KPVS 141005Z 21010KT 25/11 A2999 RMK A01 T02520114  RH  043%=      5-min Rain = 0
KPVS 141010Z 21009KT 25/12 A2999 RMK A01 T02500115  RH  044%=      5-min Rain = 0
KPVS 141015Z 22010KT 25/12 A2999 RMK A01 T02490116  RH  045%=      5-min Rain = 0
KPVS 141020Z 22010KT 25/12 A2998 RMK A01 T02500116  RH  045%=      5-min Rain = 0
KPVS 141025Z 22009KT 25/12 A2998 RMK A01 T02520116  RH  044%=      5-min Rain = 0
KPVS 141030Z 21010KT 25/12 A2998 RMK A01 T02520117  RH  044%=      5-min Rain = 0
KPVS 141035Z 22009KT 25/12 A2999 RMK A01 T02520116  RH  044%=      5-min Rain = 0
KPVS 141040Z 23008KT 25/12 A2999 RMK A01 T02510118  RH  045%=      5-min Rain = 0
KPVS 141045Z 23007KT 25/12 A2999 RMK A01 T02480119  RH  046%=      5-min Rain = 0
KPVS 141050Z 23006KT 25/12 A2999 RMK A01 T02460121  RH  047%=      5-min Rain = 0
KPVS 141055Z 23007KT 24/12 A2999 RMK A01 T02440123  RH  048%=      5-min Rain = 0
KPVS 141100Z 24006KT 24/12 A2999 RMK A01 T02420123  RH  049%=      5-min Rain = 0
KPVS 141105Z 23006KT 24/12 A30 RMK A01 T02410123  RH  050%=      5-min Rain = 0
KPVS 141110Z 23006KT 24/12 A30 RMK A01 T02390124  RH  050%=      5-min Rain = 0
KPVS 141115Z 23006KT 24/12 A30 RMK A01 T02380124  RH  051%=      5-min Rain = 0
KPVS 141120Z 23006KT 24/12 A30 RMK A01 T02370124  RH  051%=      5-min Rain = 0
KPVS 141125Z 23006KT 24/12 A30 RMK A01 T02370124  RH  051%=      5-min Rain = 0
KPVS 141130Z 23006KT 24/12 A30 RMK A01 T02350124  RH  052%=      5-min Rain = 0
KPVS 141135Z 23005KT 23/13 A30 RMK A01 T02330125  RH  052%=      5-min Rain = 0
KPVS 141140Z 24005KT 23/13 A30 RMK A01 T02310126  RH  053%=      5-min Rain = 0
KPVS 141145Z 25006KT 23/13 A30 RMK A01 T02310126  RH  054%=      5-min Rain = 0
KPVS 141150Z 25005KT 23/13 A30 RMK A01 T02320125  RH  053%=      5-min Rain = 0
KPVS 141155Z 25004KT 23/13 A30 RMK A01 T02310126  RH  054%=      5-min Rain = 0
KPVS 141200Z 25004KT 23/13 A3001 RMK A01 T02290127  RH  055%=      5-min Rain = 0
KPVS 141205Z 25004KT 23/13 A3001 RMK A01 T02270127  RH  055%=      5-min Rain = 0
KPVS 141210Z 25004KT 23/13 A3001 RMK A01 T02260127  RH  056%=      5-min Rain = 0
KPVS 141215Z 25004KT 23/13 A3001 RMK A01 T02260127  RH  056%=      5-min Rain = 0
KPVS 141220Z 25005KT 23/13 A3001 RMK A01 T02250128  RH  056%=      5-min Rain = 0
KPVS 141225Z 25005KT 23/13 A3001 RMK A01 T02260127  RH  056%=      5-min Rain = 0
KPVS 141230Z 25005KT 23/13 A3001 RMK A01 T02280127  RH  055%=      5-min Rain = 0
KPVS 141235Z 25005KT 23/13 A3001 RMK A01 T02290127  RH  055%=      5-min Rain = 0
KPVS 141240Z 25005KT 23/13 A3001 RMK A01 T02300127  RH  054%=      5-min Rain = 0
KPVS 141245Z 25005KT 23/13 A3002 RMK A01 T02320127  RH  053%=      5-min Rain = 0
KPVS 141250Z 23004KT 23/13 A3002 RMK A01 T02340129  RH  054%=      5-min Rain = 0
KPVS 141255Z 23004KT 23/13 A3002 RMK A01 T02330132  RH  055%=      5-min Rain = 0
KPVS 141300Z 25004KT 23/13 A3002 RMK A01 T02330131  RH  055%=      5-min Rain = 0
KPVS 141305Z 26004KT 24/13 A3002 RMK A01 T02350133  RH  055%=      5-min Rain = 0
KPVS 141310Z 27004KT 24/13 A3002 RMK A01 T02360134  RH  055%=      5-min Rain = 0
KPVS 141315Z 27004KT 24/13 A3002 RMK A01 T02390134  RH  054%=      5-min Rain = 0
KPVS 141320Z 27003KT 24/14 A3002 RMK A01 T02420135  RH  053%=      5-min Rain = 0
KPVS 141325Z 28007KT 25/13 A3003 RMK A01 T02460131  RH  051%=      5-min Rain = 0
KPVS 141330Z 28006KT 25/14 A3003 RMK A01 T02460136  RH  052%=      5-min Rain = 0
KPVS 141335Z 27006KT 25/14 A3003 RMK A01 T02480141  RH  053%=      5-min Rain = 0
KPVS 141340Z 28006KT 25/14 A3002 RMK A01 T02510144  RH  054%=      5-min Rain = 0
KPVS 141345Z 27006KT 26/15 A3003 RMK A01 T02550148  RH  054%=      5-min Rain = 0
KPVS 141350Z 27007KT 26/15 A3002 RMK A01 T02570150  RH  054%=      5-min Rain = 0
KPVS 141355Z 27007KT 26/15 A3003 RMK A01 T02570151  RH  054%=      5-min Rain = 0
KPVS 141400Z 27007KT 26/15 A3002 RMK A01 T02560153  RH  056%=      5-min Rain = 0
KPVS 141405Z 27007KT 26/15 A3002 RMK A01 T02550154  RH  056%=      5-min Rain = 0
KPVS 141410Z 26005KT 26/16 A3002 RMK A01 T02560156  RH  057%=      5-min Rain = 0
KPVS 141415Z 26004KT 26/16 A3003 RMK A01 T02570157  RH  057%=      5-min Rain = 0
KPVS 141420Z 26004KT 26/16 A3003 RMK A01 T02580158  RH  057%=      5-min Rain = 0
KPVS 141425Z 26003KT 26/16 A3003 RMK A01 T02590158  RH  056%=      5-min Rain = 0
KPVS 141430Z 26003KT 26/16 A3003 RMK A01 T02610159  RH  056%=      5-min Rain = 0
KPVS 141435Z 28002KT 26/16 A3003 RMK A01 T02640160  RH  055%=      5-min Rain = 0
KPVS 141440Z 27003KT 27/16 A3003 RMK A01 T02680155  RH  052%=      5-min Rain = 0
KPVS 141445Z 27002KT 27/15 A3003 RMK A01 T02730153  RH  050%=      5-min Rain = 0
KPVS 141450Z 27004KT 28/15 A3003 RMK A01 T02790151  RH  048%=      5-min Rain = 0
KPVS 141455Z 26006KT 29/14 A3003 RMK A01 T02850140  RH  043%=      5-min Rain = 0
KPVS 141500Z 25006KT 29/14 A3003 RMK A01 T02870137  RH  041%=      5-min Rain = 0
KPVS 141505Z 26005KT 29/14 A3003 RMK A01 T02900141  RH  042%=      5-min Rain = 0
KPVS 141510Z 26008KT 29/13 A3002 RMK A01 T02910133  RH  039%=      5-min Rain = 0
KPVS 141515Z 24008G13KT 29/13 A3002 RMK A01 T02930133  RH  039%=      5-min Rain = 0
KPVS 141520Z 25007KT 30/13 A3002 RMK A01 T02970130  RH  037%=      5-min Rain = 0
KPVS 141525Z 25008G13KT 30/13 A3002 RMK A01 T02970130  RH  037%=      5-min Rain = 0
KPVS 141530Z 25008KT 30/13 A3002 RMK A01 T02970131  RH  038%=      5-min Rain = 0
KPVS 141535Z 24008KT 30/13 A3002 RMK A01 T02980132  RH  038%=      5-min Rain = 0
KPVS 141540Z 25007KT 30/14 A3002 RMK A01 T03020136  RH  038%=      5-min Rain = 0
KPVS 141545Z 24008KT 30/14 A3002 RMK A01 T03020135  RH  038%=      5-min Rain = 0
KPVS 141550Z 24006KT 30/14 A3003 RMK A01 T03030140  RH  038%=      5-min Rain = 0
KPVS 141555Z 23006KT 31/14 A3003 RMK A01 T03080141  RH  038%=      5-min Rain = 0
KPVS 141600Z 25007KT 31/13 A3003 RMK A01 T03140128  RH  033%=      5-min Rain = 0
KPVS 141605Z 25008KT 32/12 A3003 RMK A01 T03170124  RH  032%=      5-min Rain = 0
KPVS 141610Z 25008KT 32/12 A3003 RMK A01 T03190123  RH  031%=      5-min Rain = 0
KPVS 141615Z 24008G13KT 33/13 A3003 RMK A01 T03270127  RH  031%=      5-min Rain = 0
KPVS 141620Z 25008G13KT 33/13 A3003 RMK A01 T03300125  RH  030%=      5-min Rain = 0
KPVS 141625Z 25010G15KT 33/12 A3002 RMK A01 T03330117  RH  028%=      5-min Rain = 0
KPVS 141630Z 26010G15KT 34/11 A3002 RMK A01 T03350110  RH  026%=      5-min Rain = 0
KPVS 141635Z 27008KT 34/12 A3002 RMK A01 T03380118  RH  027%=      5-min Rain = 0
KPVS 141640Z 26008G13KT 34/12 A3002 RMK A01 T03440117  RH  026%=      5-min Rain = 0
KPVS 141645Z 26008KT 35/12 A3002 RMK A01 T03470115  RH  025%=      5-min Rain = 0
KPVS 141650Z 26009KT 35/11 A3002 RMK A01 T03510114  RH  025%=      5-min Rain = 0
KPVS 141655Z 26009KT 35/11 A3002 RMK A01 T03510112  RH  024%=      5-min Rain = 0
KPVS 141700Z 25009G14KT 36/11 A3002 RMK A01 T03550108  RH  023%=      5-min Rain = 0
KPVS 141705Z 25009KT 36/11 A3002 RMK A01 T03620107  RH  022%=      5-min Rain = 0
KPVS 141710Z 25010G18KT 37/10 A3002 RMK A01 T03670100  RH  020%=      5-min Rain = 0
KPVS 141715Z 25010G19KT 37/09 A3002 RMK A01 T03690087  RH  018%=      5-min Rain = 0
KPVS 141720Z 25011G17KT 37/09 A3002 RMK A01 T03720088  RH  018%=      5-min Rain = 0
KPVS 141725Z 24012KT 37/09 A3002 RMK A01 T03730087  RH  018%=      5-min Rain = 0
KPVS 141730Z 25010KT 38/09 A3001 RMK A01 T03760091  RH  018%=      5-min Rain = 0
KPVS 141735Z 26011KT 37/09 A3001 RMK A01 T03740089  RH  018%=      5-min Rain = 0
KPVS 141740Z 24010G16KT 38/08 A3001 RMK A01 T03750084  RH  018%=      5-min Rain = 0
KPVS 141745Z 25010G15KT 38/08 A3001 RMK A01 T03770084  RH  017%=      5-min Rain = 0
KPVS 141750Z 25010KT 38/08 A3001 RMK A01 T03780081  RH  017%=      5-min Rain = 0
KPVS 141755Z 27010KT 38/09 A3001 RMK A01 T03790086  RH  017%=      5-min Rain = 0
KPVS 141800Z 26011G16KT 38/09 A3001 RMK A01 T03780085  RH  017%=      5-min Rain = 0
KPVS 141805Z 27011G16KT 38/09 A3001 RMK A01 T03790089  RH  018%=      5-min Rain = 0
KPVS 141810Z 26012G18KT 38/09 A30 RMK A01 T03800087  RH  017%=      5-min Rain = 0
KPVS 141815Z 26011KT 38/09 A30 RMK A01 T03790089  RH  018%=      5-min Rain = 0
KPVS 141820Z 25011KT 38/09 A30 RMK A01 T03790088  RH  018%=      5-min Rain = 0
KPVS 141825Z 26010G15KT 38/09 A30 RMK A01 T03800085  RH  017%=      5-min Rain = 0
KPVS 141830Z 25009G16KT 38/09 A30 RMK A01 T03800088  RH  018%=      5-min Rain = 0
KPVS 141835Z 24009KT 38/09 A30 RMK A01 T03810087  RH  017%=      5-min Rain = 0
KPVS 141840Z 25008G13KT 38/09 A30 RMK A01 T03830091  RH  018%=      5-min Rain = 0
KPVS 141845Z 26009G14KT 39/09 A30 RMK A01 T03850089  RH  017%=      5-min Rain = 0
KPVS 141850Z 25008G14KT 38/09 A30 RMK A01 T03840088  RH  017%=      5-min Rain = 0
KPVS 141855Z 24008G13KT 39/09 A2999 RMK A01 T03880092  RH  017%=      5-min Rain = 0
KPVS 141900Z 24008G13KT 39/08 A2999 RMK A01 T03860084  RH  017%=      5-min Rain = 0
KPVS 141905Z 28009G18KT 39/09 A2999 RMK A01 T03900091  RH  017%=      5-min Rain = 0
KPVS 141910Z 25011G18KT 39/10 A2999 RMK A01 T03890096  RH  018%=      5-min Rain = 0
KPVS 141915Z 26009KT 39/10 A2999 RMK A01 T03900095  RH  018%=      5-min Rain = 0
KPVS 141920Z 24009KT 39/09 A2999 RMK A01 T03880091  RH  017%=      5-min Rain = 0
KPVS 141925Z 28009G15KT 39/09 A2999 RMK A01 T03900089  RH  017%=      5-min Rain = 0
KPVS 141930Z 28009KT 39/09 A2998 RMK A01 T03910087  RH  016%=      5-min Rain = 0
KPVS 141935Z 26007G13KT 39/09 A2998 RMK A01 T03870085  RH  017%=      5-min Rain = 0
KPVS 141940Z 24009KT 39/09 A2998 RMK A01 T03860086  RH  017%=      5-min Rain = 0
KPVS 141945Z 24008G13KT 39/09 A2997 RMK A01 T03890085  RH  016%=      5-min Rain = 0
KPVS 141950Z 23008KT 39/08 A2997 RMK A01 T03920080  RH  016%=      5-min Rain = 0
KPVS 141955Z 23007KT 39/08 A2997 RMK A01 T03930083  RH  016%=      5-min Rain = 0
KPVS 142000Z 29007KT 40/07 A2996 RMK A01 T03950071  RH  014%=      5-min Rain = 0
KPVS 142005Z 28010KT 39/07 A2996 RMK A01 T03930072  RH  015%=      5-min Rain = 0
KPVS 142010Z 30006KT 39/07 A2996 RMK A01 T03940066  RH  014%=      5-min Rain = 0
KPVS 142015Z 30005G12KT 39/07 A2996 RMK A01 T03940070  RH  014%=      5-min Rain = 0
KPVS 142020Z 26006KT 39/07 A2996 RMK A01 T03920069  RH  014%=      5-min Rain = 0
KPVS 142025Z 27009G14KT 39/07 A2996 RMK A01 T03920070  RH  014%=      5-min Rain = 0
KPVS 142030Z 27006G12KT 39/06 A2996 RMK A01 T03920064  RH  014%=      5-min Rain = 0
KPVS 142035Z 27006G13KT 40/07 A2995 RMK A01 T03960073  RH  014%=      5-min Rain = 0
KPVS 142040Z 26006G11KT 40/07 A2995 RMK A01 T03960068  RH  014%=      5-min Rain = 0
KPVS 142045Z 26004KT 40/07 A2995 RMK A01 T03960069  RH  014%=      5-min Rain = 0
KPVS 142050Z 24007G13KT 40/07 A2995 RMK A01 T03950068  RH  014%=      5-min Rain = 0
KPVS 142055Z 28006KT 40/07 A2994 RMK A01 T03950067  RH  014%=      5-min Rain = 0
KPVS 142100Z 26004KT 40/07 A2994 RMK A01 T03980071  RH  014%=      5-min Rain = 0
KPVS 142105Z 25006G11KT 40/07 A2994 RMK A01 T03990071  RH  014%=      5-min Rain = 0
KPVS 142110Z 23004KT 40/07 A2994 RMK A01 T03990068  RH  014%=      5-min Rain = 0
KPVS 142115Z 26007G13KT 40/07 A2993 RMK A01 T04010074  RH  014%=      5-min Rain = 0
KPVS 142120Z 27009KT 40/07 A2993 RMK A01 T03970071  RH  014%=      5-min Rain = 0
KPVS 142125Z 28007KT 40/07 A2993 RMK A01 T03970072  RH  014%=      5-min Rain = 0
KPVS 142130Z 27004KT 39/07 A2993 RMK A01 T03930068  RH  014%=      5-min Rain = 0
KPVS 142135Z 36001KT 39/07 A2993 RMK A01 T03890067  RH  014%=      5-min Rain = 0
KPVS 142140Z 27002KT 39/07 A2993 RMK A01 T03890069  RH  015%=      5-min Rain = 0
KPVS 142145Z 04002KT 39/07 A2993 RMK A01 T03930067  RH  014%=      5-min Rain = 0
KPVS 142150Z 08006G16KT 39/07 A2993 RMK A01 T03910074  RH  015%=      5-min Rain = 0
KPVS 142155Z 09012G20KT 37/10 A2994 RMK A01 T03740097  RH  019%=      5-min Rain = 0
KPVS 142200Z 08012G23KT 36/09 A2993 RMK A01 T03590092  RH  020%=      5-min Rain = 0
KPVS 142205Z 08016G24KT 36/08 A2993 RMK A01 T03550082  RH  019%=      5-min Rain = 0
KPVS 142210Z 07019G27KT 35/08 A2993 RMK A01 T03540079  RH  019%=      5-min Rain = 0
KPVS 142215Z 07017G23KT 35/08 A2993 RMK A01 T03510076  RH  019%=      5-min Rain = 0
KPVS 142220Z 09016G23KT 35/08 A2994 RMK A01 T03490079  RH  020%=      5-min Rain = 0
KPVS 142225Z 09015G24KT 35/09 A2994 RMK A01 T03470088  RH  021%=      5-min Rain = 0
KPVS 142230Z 09015G26KT 34/10 A2994 RMK A01 T03430096  RH  023%=      5-min Rain = 0
KPVS 142235Z 09016G23KT 34/10 A2994 RMK A01 T03390097  RH  023%=      5-min Rain = 0
KPVS 142240Z 08017G25KT 34/10 A2993 RMK A01 T03350099  RH  024%=      5-min Rain = 0
KPVS 142245Z 08018G25KT 34/10 A2994 RMK A01 T03360097  RH  024%=      5-min Rain = 0
KPVS 142250Z 09018G24KT 34/09 A2994 RMK A01 T03410093  RH  023%=      5-min Rain = 0
KPVS 142255Z 09017G26KT 34/10 A2995 RMK A01 T03380096  RH  023%=      5-min Rain = 0
KPVS 142300Z 08017G23KT 33/10 A2995 RMK A01 T03340098  RH  024%=      5-min Rain = 0
KPVS 142305Z 08018G25KT 33/10 A2995 RMK A01 T03320100  RH  025%=      5-min Rain = 0
KPVS 142310Z 09018G24KT 33/10 A2996 RMK A01 T03320100  RH  025%=      5-min Rain = 0
KPVS 142315Z 09016G23KT 33/10 A2997 RMK A01 T03330099  RH  025%=      5-min Rain = 0
KPVS 142320Z 08018G25KT 34/09 A2997 RMK A01 T03350094  RH  023%=      5-min Rain = 0
KPVS 142325Z 08018G26KT 34/09 A2997 RMK A01 T03360090  RH  023%=      5-min Rain = 0
KPVS 142330Z 09020G27KT 34/09 A2996 RMK A01 T03370085  RH  022%=      5-min Rain = 0
KPVS 142335Z 09018G28KT 34/08 A2996 RMK A01 T03350084  RH  022%=      5-min Rain = 0
KPVS 142340Z 08018G30KT 33/09 A2997 RMK A01 T03330087  RH  023%=      5-min Rain = 0
KPVS 142345Z 07020G29KT 32/10 A2997 RMK A01 T03240095  RH  025%=      5-min Rain = 0
KPVS 142350Z 07019G29KT 31/10 A2997 RMK A01 T03120099  RH  028%=      5-min Rain = 0
KPVS 142355Z 07018G27KT 31/09 A2998 RMK A01 T03080094  RH  027%=      5-min Rain = 0
KPVS 150000Z 07017G27KT 31/09 A2998 RMK A01 T03110091  RH  026%=      5-min Rain = 0
KPVS 150005Z 06014G21KT 31/10 A2999 RMK A01 T03090095  RH  027%=      5-min Rain = 0
KPVS 150010Z 05014KT 31/10 A30 RMK A01 T03050102  RH  029%=      5-min Rain = 0
KPVS 150015Z 05014G19KT 30/10 A30 RMK A01 T03030104  RH  030%=      5-min Rain = 0
KPVS 150020Z 07014G20KT 30/11 A2999 RMK A01 T03010108  RH  031%=      5-min Rain = 0
KPVS 150025Z 08012G17KT 30/11 A2999 RMK A01 T02960111  RH  033%=      5-min Rain = 0
KPVS 150030Z 08012G17KT 30/11 A30 RMK A01 T02950109  RH  033%=      5-min Rain = 0
KPVS 150035Z 08010G15KT 30/10 A30 RMK A01 T02960104  RH  031%=      5-min Rain = 0
KPVS 150040Z 08006G11KT 30/10 A3001 RMK A01 T02980104  RH  031%=      5-min Rain = 0
KPVS 150045Z 08005G11KT 30/10 A3002 RMK A01 T02980104  RH  031%=      5-min Rain = 0
KPVS 150050Z 11003G8KT 30/10 A3003 RMK A01 T02990104  RH  031%=      5-min Rain = 0
KPVS 150055Z 25001KT 30/11 A3004 RMK A01 T02990105  RH  031%=      5-min Rain = 0
KPVS 150100Z 18002KT 30/11 A3005 RMK A01 T02990105  RH  031%=      5-min Rain = 0
KPVS 150105Z 14006G11KT 30/11 A3005 RMK A01 T02990107  RH  032%=      5-min Rain = 0
KPVS 150110Z 12011KT 30/10 A3005 RMK A01 T03020104  RH  030%=      5-min Rain = 0
KPVS 150115Z 14007G12KT 30/11 A3006 RMK A01 T03040108  RH  031%=      5-min Rain = 0
KPVS 150120Z 14006KT 30/11 A3007 RMK A01 T03000112  RH  032%=      5-min Rain = 0
KPVS 150125Z 11005KT 30/12 A3007 RMK A01 T03010115  RH  033%=      5-min Rain = 0
KPVS 150130Z 13007KT 30/13 A3007 RMK A01 T02950126  RH  037%=      5-min Rain = 0
KPVS 150135Z 16009G14KT 29/13 A3006 RMK A01 T02920130  RH  038%=      5-min Rain = 0
KPVS 150140Z 17013G18KT 28/14 A3004 RMK A01 T02840136  RH  042%=      5-min Rain = 0
KPVS 150145Z 17011G18KT 28/13 A3005 RMK A01 T02840129  RH  040%=      5-min Rain = 0
KPVS 150150Z 17007KT 29/13 A3005 RMK A01 T02870128  RH  039%=      5-min Rain = 0
KPVS 150155Z 15005G13KT 29/13 A3005 RMK A01 T02870127  RH  039%=      5-min Rain = 0
KPVS 150200Z 14007KT 29/12 A3005 RMK A01 T02870123  RH  038%=      5-min Rain = 0
KPVS 150205Z 13010G15KT 29/12 A3003 RMK A01 T02880122  RH  037%=      5-min Rain = 0
KPVS 150210Z 17005G11KT 29/12 A3004 RMK A01 T02880124  RH  038%=      5-min Rain = 0
KPVS 150215Z 15006G12KT 29/12 A3003 RMK A01 T02860123  RH  038%=      5-min Rain = 0
KPVS 150220Z 16010G15KT 29/11 A3003 RMK A01 T02890112  RH  035%=      5-min Rain = 0
KPVS 150225Z 12008KT 29/11 A3004 RMK A01 T02940110  RH  033%=      5-min Rain = 0
KPVS 150230Z 08009G16KT 29/11 A3003 RMK A01 T02940108  RH  033%=      5-min Rain = 0
KPVS 150235Z 33005G12KT 31/10 A3003 RMK A01 T03050096  RH  028%=      5-min Rain = 0
KPVS 150240Z 29005KT 30/11 A3004 RMK A01 T02980109  RH  032%=      5-min Rain = 0
KPVS 150245Z 26006KT 29/11 A3004 RMK A01 T02940109  RH  033%=      5-min Rain = 0
KPVS 150250Z 28004KT 29/12 A3004 RMK A01 T02870115  RH  036%=      5-min Rain = 0
KPVS 150255Z 26003KT 28/12 A3005 RMK A01 T02830117  RH  037%=      5-min Rain = 0
KPVS 150300Z 04002KT 28/12 A3005 RMK A01 T02840117  RH  037%=      5-min Rain = 0
KPVS 150305Z 03005KT 28/12 A3005 RMK A01 T02820119  RH  038%=      5-min Rain = 0
KPVS 150310Z 06005KT 29/11 A3005 RMK A01 T02850113  RH  036%=      5-min Rain = 0
KPVS 150315Z 09006KT 29/12 A3005 RMK A01 T02860117  RH  037%=      5-min Rain = 0
KPVS 150320Z 11005KT 28/12 A3004 RMK A01 T02820118  RH  038%=      5-min Rain = 0
KPVS 150325Z 12007KT 28/12 A3004 RMK A01 T02810117  RH  038%=      5-min Rain = 0
KPVS 150330Z 13003G8KT 28/12 A3004 RMK A01 T02820116  RH  037%=      5-min Rain = 0
KPVS 150335Z 31002KT 28/12 A3004 RMK A01 T02790122  RH  039%=      5-min Rain = 0
KPVS 150340Z 32004KT 27/12 A3005 RMK A01 T02740123  RH  041%=      5-min Rain = 0
KPVS 150345Z 32006KT 27/12 A3005 RMK A01 T02730123  RH  041%=      5-min Rain = 0
KPVS 150350Z 30007KT 27/13 A3005 RMK A01 T02740126  RH  042%=      5-min Rain = 0
KPVS 150355Z 32009KT 28/12 A3006 RMK A01 T02770123  RH  040%=      5-min Rain = 0
KPVS 150400Z 34010KT 28/12 A3007 RMK A01 T02790124  RH  040%=      5-min Rain = 0
KPVS 150405Z 34011G16KT 28/12 A3007 RMK A01 T02820121  RH  038%=      5-min Rain = 0
KPVS 150410Z 33010KT 29/12 A3007 RMK A01 T02850120  RH  037%=      5-min Rain = 0
KPVS 150415Z 32010G15KT 29/12 A3007 RMK A01 T02860116  RH  036%=      5-min Rain = 0
KPVS 150420Z 26005KT 30/10 A3006 RMK A01 T02950104  RH  032%=      5-min Rain = 0
KPVS 150425Z 27005G16KT 30/10 A3005 RMK A01 T03010100  RH  030%=      5-min Rain = 0
KPVS 150430Z 28008G13KT 31/09 A3005 RMK A01 T03120089  RH  026%=      5-min Rain = 0
KPVS 150435Z 04004KT 31/10 A3004 RMK A01 T03110096  RH  027%=      5-min Rain = 0
KPVS 150440Z 09004KT 31/10 A3003 RMK A01 T03080095  RH  027%=      5-min Rain = 0
KPVS 150445Z 16012G17KT 31/10 A30 RMK A01 T03060100  RH  029%=      5-min Rain = 0
KPVS 150450Z 14016G36KT 31/08 A30 RMK A01 T03140075  RH  024%=      5-min Rain = 0
KPVS 150455Z 18013G19KT 32/10 A30 RMK A01 T03200096  RH  026%=      5-min Rain = 0

Page generated in 0.0092 seconds.